createdAt,value
2023-01-26T00:00:36.000Z,8.80
2023-01-26T00:05:40.285Z,9.25
2023-01-26T00:10:50.254Z,9.15
2023-01-26T00:15:55.472Z,9.15
2023-01-26T00:21:00.333Z,9.53
2023-01-26T00:26:04.362Z,9.10
2023-01-26T00:31:15.389Z,9.30
2023-01-26T00:36:19.689Z,9.68
2023-01-26T00:41:41.068Z,9.50
2023-01-26T00:46:47.358Z,9.65
2023-01-26T00:51:51.215Z,9.75
2023-01-26T00:56:55.189Z,10.02
2023-01-26T01:02:02.737Z,10.13
2023-01-26T01:07:06.551Z,9.97
2023-01-26T01:12:10.250Z,9.45
2023-01-26T01:17:15.258Z,9.98
2023-01-26T01:22:19.049Z,9.88
2023-01-26T01:27:22.652Z,9.77
2023-01-26T01:32:27.696Z,9.27
2023-01-26T01:37:31.688Z,9.88
2023-01-26T01:42:35.651Z,9.43
2023-01-26T01:47:41.137Z,9.95
2023-01-26T01:52:45.056Z,10.15
2023-01-26T01:57:56.564Z,10.00
2023-01-26T02:03:14.851Z,9.48
2023-01-26T02:08:21.440Z,9.50
2023-01-26T02:13:26.476Z,9.20
2023-01-26T02:18:31.510Z,9.68
2023-01-26T02:24:00.369Z,9.93
2023-01-26T02:29:10.075Z,10.00
2023-01-26T02:34:17.987Z,9.77
2023-01-26T02:39:36.274Z,9.60
2023-01-26T02:44:43.099Z,9.48
2023-01-26T02:49:48.231Z,9.30
2023-01-26T02:55:11.148Z,9.95
2023-01-26T03:00:20.367Z,10.02
2023-01-26T03:05:25.995Z,10.05
2023-01-26T03:10:30.678Z,9.90
2023-01-26T03:15:52.647Z,9.70
2023-01-26T03:21:18.331Z,9.48
2023-01-26T03:26:40.546Z,10.05
2023-01-26T03:31:45.765Z,9.52
2023-01-26T03:36:50.439Z,9.32
2023-01-26T03:42:13.840Z,9.70
2023-01-26T03:47:36.507Z,9.38
2023-01-26T03:52:57.714Z,9.65
2023-01-26T03:58:01.582Z,9.70
2023-01-26T04:03:25.027Z,9.85
2023-01-26T04:08:28.771Z,9.38
2023-01-26T04:13:52.184Z,9.63
2023-01-26T04:19:23.981Z,9.40
2023-01-26T04:24:27.803Z,9.20
2023-01-26T04:29:33.856Z,9.90
2023-01-26T04:34:39.206Z,9.30
2023-01-26T04:39:50.751Z,9.30
2023-01-26T04:44:55.511Z,9.52
2023-01-26T04:50:01.399Z,9.13
2023-01-26T04:55:05.933Z,9.95
2023-01-26T05:00:14.242Z,9.43
2023-01-26T05:05:20.033Z,9.30
2023-01-26T05:10:24.201Z,9.23
2023-01-26T05:16:07.985Z,8.88
2023-01-26T05:21:31.646Z,9.65
2023-01-26T05:26:35.780Z,9.43
2023-01-26T05:31:42.435Z,9.10
2023-01-26T05:36:47.748Z,8.73
2023-01-26T05:41:51.551Z,8.98
2023-01-26T05:46:55.183Z,8.88
2023-01-26T05:52:00.922Z,8.73
2023-01-26T05:57:06.147Z,8.32
2023-01-26T06:02:14.138Z,8.80
2023-01-26T06:07:22.305Z,8.70
2023-01-26T06:12:44.778Z,8.45
2023-01-26T06:18:13.195Z,8.88
2023-01-26T06:23:23.639Z,8.40
2023-01-26T06:28:29.147Z,8.18
2023-01-26T06:33:35.472Z,8.10
2023-01-26T06:38:47.952Z,8.53
2023-01-26T06:43:51.872Z,8.80
2023-01-26T06:48:56.293Z,8.15
2023-01-26T06:54:01.622Z,8.02
2023-01-26T06:59:13.180Z,8.27
2023-01-26T07:04:35.274Z,8.25
2023-01-26T07:09:40.465Z,8.13
2023-01-26T07:14:44.295Z,8.10
2023-01-26T07:19:47.895Z,7.75
2023-01-26T07:24:52.909Z,8.10
2023-01-26T07:29:56.560Z,7.82
2023-01-26T07:35:00.259Z,7.93
2023-01-26T07:40:07.047Z,7.93
2023-01-26T07:45:11.929Z,8.02
2023-01-26T07:50:16.755Z,7.93
2023-01-26T07:55:26.063Z,8.20
2023-01-26T08:00:29.688Z,7.53
2023-01-26T08:05:35.633Z,7.75
2023-01-26T08:10:40.926Z,7.68
2023-01-26T08:15:44.548Z,7.60
2023-01-26T08:20:53.773Z,7.38
2023-01-26T08:26:03.018Z,7.47
2023-01-26T08:31:11.461Z,7.57
2023-01-26T08:36:17.280Z,7.05
2023-01-26T08:41:22.468Z,7.20
2023-01-26T08:46:26.128Z,7.60
2023-01-26T08:51:29.832Z,7.57
2023-01-26T08:56:34.889Z,7.45
2023-01-26T09:01:38.650Z,7.55
2023-01-26T09:06:42.526Z,7.10
2023-01-26T09:11:47.628Z,7.53
2023-01-26T09:16:51.523Z,7.15
2023-01-26T09:21:55.533Z,7.22
2023-01-26T09:27:00.558Z,6.80
2023-01-26T09:32:04.245Z,7.93
2023-01-26T09:37:08.815Z,7.32
2023-01-26T09:42:34.252Z,7.05
2023-01-26T09:47:59.272Z,6.97
2023-01-26T09:53:11.011Z,6.80
2023-01-26T09:58:25.658Z,6.93
2023-01-26T10:03:39.393Z,7.40
2023-01-26T10:08:45.381Z,7.22
2023-01-26T10:14:00.569Z,6.97
2023-01-26T10:19:10.775Z,6.97
2023-01-26T10:24:20.053Z,7.22
2023-01-26T10:29:25.268Z,7.13
2023-01-26T10:34:29.722Z,7.00
2023-01-26T10:39:33.478Z,7.03
2023-01-26T10:44:40.718Z,7.10
2023-01-26T10:49:44.444Z,6.78
2023-01-26T10:54:48.597Z,6.95
2023-01-26T10:59:57.355Z,6.80
2023-01-26T11:05:20.185Z,7.15
2023-01-26T11:10:32.765Z,6.88
2023-01-26T11:15:41.841Z,6.93
2023-01-26T11:20:59.795Z,6.85
2023-01-26T11:27:07.092Z,6.65
2023-01-26T11:32:24.082Z,6.90
2023-01-26T11:37:44.227Z,6.50
2023-01-26T11:43:08.551Z,6.43
2023-01-26T11:48:24.000Z,6.65
2023-01-26T11:54:00.316Z,6.80
2023-01-26T11:59:12.482Z,6.13
2023-01-26T12:04:22.778Z,5.97
2023-01-26T12:09:34.421Z,6.18
2023-01-26T12:14:44.831Z,5.93
2023-01-26T12:20:04.923Z,6.47
2023-01-26T12:25:29.818Z,6.15
2023-01-26T12:30:44.503Z,5.63
2023-01-26T12:36:19.121Z,5.50
2023-01-26T12:41:39.759Z,5.40
2023-01-26T12:46:53.096Z,5.57
2023-01-26T12:52:07.376Z,5.50
2023-01-26T12:57:19.224Z,5.00
2023-01-26T13:02:31.523Z,5.40
2023-01-26T13:07:40.259Z,5.07
2023-01-26T13:12:50.276Z,4.90
2023-01-26T13:18:01.085Z,5.10
2023-01-26T13:23:52.827Z,5.10
2023-01-26T13:29:35.605Z,4.45
2023-01-26T13:34:44.840Z,4.72
2023-01-26T13:39:58.173Z,4.80
2023-01-26T13:45:10.243Z,5.03
2023-01-26T13:50:32.836Z,4.38
2023-01-26T13:55:42.221Z,4.88
2023-01-26T14:01:00.921Z,4.68
2023-01-26T14:06:10.519Z,4.60
2023-01-26T14:11:22.632Z,4.70
2023-01-26T14:16:33.023Z,4.40
2023-01-26T14:21:51.077Z,3.97
2023-01-26T14:32:01.560Z,4.13
2023-01-26T14:37:15.392Z,4.20
2023-01-26T14:42:22.324Z,4.03
2023-01-26T14:47:30.964Z,4.28
2023-01-26T14:52:38.242Z,3.60
2023-01-26T14:57:43.213Z,3.67
2023-01-26T15:02:50.721Z,3.95
2023-01-26T15:07:59.894Z,3.90
2023-01-26T15:13:20.940Z,3.90
2023-01-26T15:18:32.449Z,4.00
2023-01-26T15:23:39.261Z,4.20
2023-01-26T15:28:44.435Z,3.85
2023-01-26T15:33:51.851Z,3.83
2023-01-26T15:39:05.278Z,4.00
2023-01-26T15:44:17.572Z,3.70
2023-01-26T15:49:23.037Z,3.88
2023-01-26T15:54:26.652Z,3.90
2023-01-26T15:59:31.759Z,3.67
2023-01-26T16:04:35.466Z,4.05
2023-01-26T16:09:39.008Z,4.22
2023-01-26T16:14:44.124Z,3.72
2023-01-26T16:19:47.818Z,4.00
2023-01-26T16:24:51.406Z,3.60
2023-01-26T16:29:56.290Z,3.88
2023-01-26T16:35:00.062Z,3.78
2023-01-26T16:40:03.732Z,3.60
2023-01-26T16:45:18.300Z,3.80
2023-01-26T16:50:22.780Z,4.03
2023-01-26T16:55:26.421Z,3.90
2023-01-26T17:00:31.342Z,3.92
2023-01-26T17:05:35.746Z,4.03
2023-01-26T17:10:51.883Z,3.88
2023-01-26T17:16:05.789Z,3.90
2023-01-26T17:21:09.526Z,3.75
2023-01-26T17:26:17.020Z,3.60
2023-01-26T17:31:24.389Z,3.60
2023-01-26T17:36:28.448Z,3.63
2023-01-26T17:41:32.195Z,3.72
2023-01-26T17:46:37.324Z,3.45
2023-01-26T17:51:41.517Z,3.60
2023-01-26T17:56:45.310Z,3.60
2023-01-26T18:01:50.409Z,3.60
2023-01-26T18:06:54.118Z,3.33
2023-01-26T18:11:57.805Z,3.55
2023-01-26T18:17:03.039Z,3.42
2023-01-26T18:22:06.718Z,3.25
2023-01-26T18:27:10.336Z,3.50
2023-01-26T18:32:15.660Z,3.42
2023-01-26T18:37:19.428Z,3.58
2023-01-26T18:42:23.014Z,3.40
2023-01-26T18:47:28.366Z,3.13
2023-01-26T18:52:32.079Z,3.38
2023-01-26T18:57:36.169Z,3.33
2023-01-26T19:02:41.374Z,3.38
2023-01-26T19:07:45.257Z,3.42
2023-01-26T19:12:50.828Z,3.13
2023-01-26T19:17:55.835Z,3.38
2023-01-26T19:23:01.770Z,3.25
2023-01-26T19:28:06.279Z,3.20
2023-01-26T19:33:28.900Z,3.45
2023-01-26T19:38:34.055Z,3.10
2023-01-26T19:43:37.876Z,3.05
2023-01-26T19:48:43.937Z,2.95
2023-01-26T19:53:51.648Z,3.15
2023-01-26T19:58:57.633Z,3.17
2023-01-26T20:04:06.558Z,3.15
2023-01-26T20:09:10.683Z,3.05
2023-01-26T20:14:14.300Z,3.20
2023-01-26T20:19:19.585Z,2.92
2023-01-26T20:24:23.334Z,3.10
2023-01-26T20:29:26.983Z,3.20
2023-01-26T20:34:32.238Z,2.92
2023-01-26T20:39:35.968Z,2.90
2023-01-26T20:44:40.960Z,2.70
2023-01-26T20:49:47.379Z,2.70
2023-01-26T20:54:51.775Z,3.17
2023-01-26T20:59:55.430Z,3.22
2023-01-26T21:05:00.741Z,2.97
2023-01-26T21:10:05.067Z,3.00
2023-01-26T21:15:10.160Z,3.15
2023-01-26T21:20:15.896Z,3.17
2023-01-26T21:25:19.454Z,3.10
2023-01-26T21:30:23.362Z,3.03
2023-01-26T21:35:28.403Z,3.20
2023-01-26T21:40:32.190Z,3.22
2023-01-26T21:45:54.994Z,3.00
2023-01-26T21:51:17.952Z,3.17
2023-01-26T21:56:21.659Z,3.33
2023-01-26T22:01:26.361Z,3.20
2023-01-26T22:06:31.978Z,3.53
2023-01-26T22:11:35.867Z,3.22
2023-01-26T22:16:39.607Z,3.50
2023-01-26T22:21:44.847Z,3.22
2023-01-26T22:26:48.874Z,3.42
2023-01-26T22:31:52.860Z,3.72
2023-01-26T22:36:57.943Z,3.75
2023-01-26T22:42:01.556Z,3.40
2023-01-26T22:47:05.538Z,3.55
2023-01-26T22:52:10.823Z,3.33
2023-01-26T22:57:14.538Z,3.65
2023-01-26T23:02:18.233Z,3.13
2023-01-26T23:07:24.471Z,3.30
2023-01-26T23:12:28.192Z,3.45
2023-01-26T23:17:31.830Z,3.40
2023-01-26T23:22:36.955Z,3.40
2023-01-26T23:27:40.655Z,3.40
2023-01-26T23:32:44.386Z,3.60
2023-01-26T23:37:49.513Z,3.50
2023-01-26T23:43:07.009Z,3.20
2023-01-26T23:48:18.177Z,3.25
2023-01-26T23:53:24.093Z,3.60
2023-01-26T23:58:27.907Z,3.30
